Time;durP1;ratioP1;P1;durP2;ratioP2;P2;SDS_P1;SDS_P2;PMS_P1;PMS_P2;Temp;Humidity;BMP_temperature;BMP_pressure;BME280_temperature;BME280_humidity;BME280_pressure;Samples;Min_cycle;Max_cycle;Signal;HPM_P1;HPM_P2
2022/05/08 00:02:04;;;;;;;5.27;3.87;;;;;;;12.78;55.07;100167.03;5133061;27;20235;-67
2022/05/08 00:04:30;;;;;;;4.43;3.30;;;;;;;12.77;54.75;100171.53;5133425;27;20194;-67
2022/05/08 00:06:57;;;;;;;3.93;3.20;;;;;;;12.68;54.44;100172.69;5133471;27;20242;-67
2022/05/08 00:09:24;;;;;;;7.87;4.43;;;;;;;12.69;54.40;100169.00;5133687;27;20194;-67
2022/05/08 00:11:52;;;;;;;6.27;3.83;;;;;;;12.73;54.23;100172.94;5133581;27;20676;-67
2022/05/08 00:14:19;;;;;;;7.67;4.20;;;;;;;12.75;54.88;100167.41;5133778;27;20194;-67
2022/05/08 00:16:45;;;;;;;5.73;4.13;;;;;;;12.72;55.76;100168.63;5133759;27;20257;-66
2022/05/08 00:19:12;;;;;;;7.90;3.90;;;;;;;12.65;55.03;100166.91;5133339;27;20624;-66
2022/05/08 00:21:40;;;;;;;11.90;4.63;;;;;;;12.62;54.99;100159.31;5134321;27;20615;-66
2022/05/08 00:24:07;;;;;;;4.27;3.30;;;;;;;12.53;55.22;100158.59;5134132;27;20258;-66
2022/05/08 00:26:34;;;;;;;4.23;3.83;;;;;;;12.52;55.12;100159.63;5133038;27;20240;-67
2022/05/08 00:29:02;;;;;;;6.70;4.40;;;;;;;12.44;55.24;100159.78;5133051;27;20577;-66
2022/05/08 00:31:29;;;;;;;8.57;3.43;;;;;;;12.44;55.64;100149.13;5133015;27;20677;-66
2022/05/08 00:33:56;;;;;;;5.20;3.77;;;;;;;12.45;55.72;100156.06;5132603;27;20258;-67
2022/05/08 00:36:23;;;;;;;8.20;3.80;;;;;;;12.48;56.20;100155.69;5133099;27;20278;-66
2022/05/08 00:38:49;;;;;;;6.53;3.97;;;;;;;12.48;55.57;100155.69;5133151;27;20194;-66
2022/05/08 00:41:16;;;;;;;8.23;4.00;;;;;;;12.42;55.80;100151.13;5133097;27;20215;-67
2022/05/08 00:43:43;;;;;;;4.43;3.80;;;;;;;12.35;56.44;100150.25;5133393;27;20190;-67
2022/05/08 00:46:12;;;;;;;4.63;3.67;;;;;;;12.31;57.27;100143.66;5133396;27;20261;-67
2022/05/08 00:48:40;;;;;;;4.07;3.67;;;;;;;12.33;58.03;100149.63;5133454;27;20229;-67
2022/05/08 00:51:09;;;;;;;7.43;4.07;;;;;;;12.28;58.93;100141.38;5132977;27;20614;-67
2022/05/08 00:53:40;;;;;;;3.97;3.67;;;;;;;12.04;59.22;100117.00;5133262;27;20188;-67
2022/05/08 00:56:08;;;;;;;6.00;3.77;;;;;;;12.14;59.68;100152.94;5132961;27;20185;-67
2022/05/08 00:58:36;;;;;;;7.70;4.17;;;;;;;12.02;60.74;100149.13;5133422;27;20534;-67
2022/05/08 01:01:04;;;;;;;6.27;4.37;;;;;;;11.92;61.80;100148.59;5132888;28;20194;-67
2022/05/08 01:03:32;;;;;;;7.67;4.80;;;;;;;11.85;62.18;100163.69;5132532;27;20351;-67
2022/05/08 01:06:04;;;;;;;10.87;4.90;;;;;;;11.81;62.62;100153.59;5133045;28;20254;-67
2022/05/08 01:08:33;;;;;;;6.93;4.50;;;;;;;11.73;62.64;100154.53;5132497;28;20186;-67
2022/05/08 01:11:01;;;;;;;8.00;4.00;;;;;;;11.69;63.26;100150.59;5133109;28;20192;-67
2022/05/08 01:13:28;;;;;;;5.47;4.60;;;;;;;11.63;63.85;100147.88;5133210;28;20225;-68
2022/05/08 01:15:55;;;;;;;7.77;5.10;;;;;;;11.48;64.33;100150.53;5133051;28;20253;-67
2022/05/08 01:18:22;;;;;;;5.67;3.87;;;;;;;11.34;65.94;100150.50;5132998;28;20353;-67
2022/05/08 01:20:51;;;;;;;7.50;4.13;;;;;;;11.29;65.62;100151.06;5132591;28;20615;-67
2022/05/08 01:23:21;;;;;;;5.70;3.87;;;;;;;11.26;65.59;100148.78;5132631;28;20279;-67
2022/05/08 01:25:49;;;;;;;5.00;4.63;;;;;;;11.25;65.32;100155.13;5133291;28;20275;-68
2022/05/08 01:28:17;;;;;;;6.80;4.83;;;;;;;11.26;65.74;100142.66;5132620;27;20200;-67
2022/05/08 01:30:44;;;;;;;5.00;4.57;;;;;;;11.26;65.93;100148.78;5132788;27;20265;-69
2022/05/08 01:33:12;;;;;;;6.23;4.03;;;;;;;11.08;65.69;100127.06;5132488;28;20256;-68
2022/05/08 01:35:40;;;;;;;5.53;4.60;;;;;;;11.10;67.27;100151.63;5132346;28;20193;-68
2022/05/08 01:38:08;;;;;;;6.87;4.20;;;;;;;11.03;67.21;100150.72;5133195;28;20261;-68
2022/05/08 01:40:36;;;;;;;4.33;4.00;;;;;;;11.02;67.80;100143.72;5132210;28;20196;-67
2022/05/08 01:43:04;;;;;;;6.33;4.63;;;;;;;10.96;67.59;100139.97;5132466;28;20197;-67
2022/05/08 01:45:31;;;;;;;6.67;5.10;;;;;;;10.93;68.37;100142.19;5132791;28;20249;-67
2022/05/08 01:50:42;;;;;;;6.37;5.00;;;;;;;10.79;69.50;100148.31;5133188;28;20272;-67
2022/05/08 01:53:08;;;;;;;5.47;5.00;;;;;;;10.74;70.50;100148.00;5132705;28;20223;-67
2022/05/08 01:55:37;;;;;;;7.37;6.07;;;;;;;10.75;70.51;100153.16;5132393;28;20656;-67
2022/05/08 01:58:03;;;;;;;10.47;6.07;;;;;;;10.71;70.43;100156.38;5132361;28;20692;-67
2022/05/08 02:00:31;;;;;;;6.97;5.90;;;;;;;10.71;71.08;100151.84;5132660;27;20244;-67
2022/05/08 02:03:00;;;;;;;7.93;5.93;;;;;;;10.68;71.34;100146.09;5132562;28;20191;-68
2022/05/08 02:05:29;;;;;;;6.30;5.70;;;;;;;10.65;71.35;100157.06;5132191;28;20729;-67
2022/05/08 02:07:56;;;;;;;6.07;5.53;;;;;;;10.69;71.43;100153.03;5132492;28;20220;-67
2022/05/08 02:10:24;;;;;;;6.20;5.60;;;;;;;10.68;71.59;100146.09;5132138;28;20196;-68
2022/05/08 02:12:52;;;;;;;6.20;5.80;;;;;;;10.73;71.29;100151.69;5132108;28;20202;-67
2022/05/08 02:15:18;;;;;;;9.63;6.03;;;;;;;10.74;71.79;100142.69;5133455;27;20189;-67
2022/05/08 02:17:45;;;;;;;6.87;5.47;;;;;;;10.70;71.66;100146.72;5135694;27;20196;-67
2022/05/08 02:20:12;;;;;;;7.10;6.43;;;;;;;10.72;71.29;100155.34;5136599;27;20225;-67
2022/05/08 02:22:39;;;;;;;6.37;5.87;;;;;;;10.71;71.60;100156.38;5135961;27;20189;-67
2022/05/08 02:25:07;;;;;;;6.90;6.23;;;;;;;10.58;72.28;100156.16;5136051;27;20234;-67
2022/05/08 02:27:38;;;;;;;6.30;5.77;;;;;;;10.48;73.11;100145.78;5135462;27;20399;-67
2022/05/08 02:30:07;;;;;;;6.90;6.30;;;;;;;10.38;72.40;100144.38;5135858;27;20203;-67
2022/05/08 02:32:34;;;;;;;7.07;6.47;;;;;;;10.33;73.87;100147.56;5135353;27;20195;-67
2022/05/08 02:35:01;;;;;;;6.80;6.23;;;;;;;10.32;74.05;100145.06;5135071;27;20255;-68
2022/05/08 02:37:28;;;;;;;7.57;6.53;;;;;;;10.15;74.41;100141.75;5135696;27;20225;-67
2022/05/08 02:39:55;;;;;;;6.90;6.40;;;;;;;10.17;73.91;100142.38;5135310;27;20624;-68
2022/05/08 02:42:22;;;;;;;6.73;6.10;;;;;;;10.06;74.92;100150.75;5135635;27;20258;-68
2022/05/08 02:44:49;;;;;;;8.37;7.57;;;;;;;10.06;74.14;100155.25;5135674;27;20193;-68
2022/05/08 02:47:17;;;;;;;9.03;7.40;;;;;;;10.05;74.88;100154.41;5134945;27;20778;-68
2022/05/08 02:49:44;;;;;;;7.30;6.60;;;;;;;10.07;74.55;100147.09;5135361;27;20250;-68
2022/05/08 02:52:10;;;;;;;6.20;5.60;;;;;;;10.15;74.56;100148.88;5135517;27;20187;-68
2022/05/08 02:54:37;;;;;;;6.93;6.33;;;;;;;10.15;74.40;100148.88;5135102;27;20243;-68
2022/05/08 02:59:48;;;;;;;8.43;5.43;;;;;;;10.17;74.52;100154.84;5135545;27;20248;-68
2022/05/08 03:02:16;;;;;;;5.90;5.50;;;;;;;10.15;74.53;100154.16;5135221;27;20204;-67
2022/05/08 03:04:45;;;;;;;5.80;5.30;;;;;;;10.02;75.45;100153.91;5135034;27;20194;-68
2022/05/08 03:07:12;;;;;;;8.83;6.60;;;;;;;10.08;75.15;100158.53;5135434;27;20246;-68
2022/05/08 03:09:38;;;;;;;6.27;5.87;;;;;;;9.99;74.97;100156.91;5135104;27;20197;-68
2022/05/08 03:12:06;;;;;;;8.33;5.70;;;;;;;9.99;75.19;100163.06;5134614;27;20678;-68
2022/05/08 03:14:32;;;;;;;6.47;5.87;;;;;;;9.88;76.00;100165.25;5134938;27;20249;-68
2022/05/08 03:16:59;;;;;;;6.40;5.90;;;;;;;9.84;76.01;100161.31;5134831;27;20189;-68
2022/05/08 03:19:26;;;;;;;8.60;6.10;;;;;;;9.86;75.81;100164.63;5134281;27;20262;-68
2022/05/08 03:21:54;;;;;;;11.87;5.70;;;;;;;9.87;76.78;100166.25;5134488;27;20659;-68
2022/05/08 03:24:20;;;;;;;8.70;5.70;;;;;;;9.90;76.58;100168.59;5134708;27;20194;-68
2022/05/08 03:26:47;;;;;;;6.40;5.77;;;;;;;9.92;76.47;100170.06;5134231;27;20252;-68
2022/05/08 03:29:14;;;;;;;7.30;5.93;;;;;;;9.95;76.82;100174.19;5134182;27;20842;-67
2022/05/08 03:31:40;;;;;;;6.20;5.60;;;;;;;9.96;77.30;100171.34;5134638;27;20246;-67
2022/05/08 03:34:07;;;;;;;6.10;5.37;;;;;;;10.04;76.68;100173.13;5134603;27;20198;-68
2022/05/08 03:36:34;;;;;;;7.53;6.30;;;;;;;10.02;76.98;100177.78;5134027;27;20254;-68
2022/05/08 03:39:02;;;;;;;6.50;5.80;;;;;;;10.07;76.96;100172.81;5134375;27;20255;-68
2022/05/08 03:41:29;;;;;;;6.17;5.63;;;;;;;10.15;76.68;100178.91;5134205;27;20190;-68
2022/05/08 03:43:55;;;;;;;6.50;5.47;;;;;;;10.15;76.70;100186.03;5133873;27;20570;-68
2022/05/08 03:46:22;;;;;;;8.87;6.20;;;;;;;10.16;77.83;100180.53;5133926;27;20190;-69
2022/05/08 03:48:49;;;;;;;7.13;6.47;;;;;;;10.15;76.56;100186.88;5134078;27;20286;-68
2022/05/08 03:51:16;;;;;;;8.90;7.00;;;;;;;10.13;76.20;100182.75;5133763;27;20251;-68
2022/05/08 03:53:42;;;;;;;20.10;6.27;;;;;;;10.43;76.04;100189.81;5133720;27;20655;-68
2022/05/08 03:56:10;;;;;;;8.00;5.80;;;;;;;11.18;73.16;100196.72;5133479;27;20260;-67
2022/05/08 03:58:37;;;;;;;5.90;5.30;;;;;;;12.11;70.23;100193.25;5133939;27;20191;-68
2022/05/08 04:01:04;;;;;;;6.40;5.20;;;;;;;12.87;66.24;100204.00;5133897;27;20719;-68
2022/05/08 04:03:31;;;;;;;5.90;5.30;;;;;;;13.45;63.69;100208.97;5133768;27;20267;-69
2022/05/08 04:05:57;;;;;;;8.00;4.87;;;;;;;14.10;60.72;100214.56;5133720;27;20191;-71
2022/05/08 04:08:24;;;;;;;5.77;5.20;;;;;;;14.75;57.14;100230.75;5133616;27;20709;-69
2022/05/08 04:10:51;;;;;;;5.83;5.10;;;;;;;15.36;54.24;100231.41;5133951;27;20214;-70
2022/05/08 04:13:19;;;;;;;6.97;4.97;;;;;;;15.72;53.61;100240.56;5133726;27;20247;-69
2022/05/08 04:18:31;;;;;;;8.37;4.43;;;;;;;16.45;50.47;100235.75;5133370;27;20181;-69
2022/05/08 04:20:58;;;;;;;5.83;5.33;;;;;;;16.74;49.40;100229.75;5134117;27;20194;-71
2022/05/08 04:26:08;;;;;;;11.20;5.20;;;;;;;17.44;47.19;100224.00;5133542;27;20189;-70
2022/05/08 04:28:36;;;;;;;10.73;5.60;;;;;;;17.69;45.73;100225.59;5132955;27;20762;-70
2022/05/08 04:31:03;;;;;;;5.63;5.10;;;;;;;17.83;46.30;100226.25;5133440;27;20278;-69
2022/05/08 04:33:30;;;;;;;5.70;5.27;;;;;;;18.10;45.27;100231.09;5133019;27;20712;-70
2022/05/08 04:35:56;;;;;;;7.50;4.93;;;;;;;18.50;43.92;100228.72;5132826;27;20569;-72
2022/05/08 04:38:23;;;;;;;10.97;5.03;;;;;;;19.02;42.73;100234.09;5132409;27;20194;-72
2022/05/08 04:40:50;;;;;;;6.03;5.27;;;;;;;18.99;42.37;100231.03;5132509;27;20244;-72
2022/05/08 04:43:16;;;;;;;6.43;5.93;;;;;;;19.47;42.16;100226.25;5132858;27;20262;-71
2022/05/08 04:45:44;;;;;;;6.57;5.97;;;;;;;20.05;40.51;100218.91;5132425;27;20720;-71
2022/05/08 04:48:11;;;;;;;6.83;6.03;;;;;;;20.32;39.98;100228.09;5132405;27;20283;-72
2022/05/08 04:50:40;;;;;;;7.37;6.00;;;;;;;20.74;39.05;100221.28;5132174;27;20615;-72
2022/05/08 04:53:06;;;;;;;6.43;5.93;;;;;;;21.33;37.48;100228.78;5132151;27;20192;-72
2022/05/08 04:55:33;;;;;;;8.57;6.30;;;;;;;21.78;36.33;100220.50;5132962;27;20193;-72
2022/05/08 04:58:00;;;;;;;6.27;5.67;;;;;;;22.21;35.37;100210.47;5132555;27;20255;-71
2022/05/08 05:00:27;;;;;;;7.10;4.80;;;;;;;23.08;33.63;100205.66;5132389;27;20193;-70
2022/05/08 05:02:55;;;;;;;7.93;5.10;;;;;;;23.60;32.32;100207.38;5132696;28;20254;-71
2022/05/08 05:05:22;;;;;;;6.50;4.77;;;;;;;23.91;30.89;100201.03;5132011;28;20190;-70
2022/05/08 05:07:48;;;;;;;5.53;5.03;;;;;;;23.67;31.20;100201.69;5131554;28;20217;-69
2022/05/08 05:10:15;;;;;;;7.53;5.53;;;;;;;23.94;31.22;100205.13;5131677;28;20198;-69
2022/05/08 05:12:42;;;;;;;8.50;6.17;;;;;;;23.93;31.49;100211.66;5132277;28;20195;-73
2022/05/08 05:15:09;;;;;;;6.80;6.20;;;;;;;23.39;32.11;100219.19;5132126;28;20191;-71
2022/05/08 05:17:36;;;;;;;6.60;6.03;;;;;;;23.41;32.52;100219.75;5131853;28;20194;-72
2022/05/08 05:20:05;;;;;;;7.23;6.07;;;;;;;23.22;32.80;100223.13;5132696;28;20574;-73
2022/05/08 05:22:32;;;;;;;6.50;6.00;;;;;;;23.28;32.65;100222.91;5132647;28;20251;-71
2022/05/08 05:24:59;;;;;;;6.10;5.50;;;;;;;23.92;31.34;100218.97;5132270;28;20251;-69
2022/05/08 05:27:26;;;;;;;8.23;5.97;;;;;;;23.89;32.51;100213.22;5132360;28;20295;-70
2022/05/08 05:29:53;;;;;;;7.50;6.60;;;;;;;23.39;32.94;100215.63;5132072;28;20213;-64
2022/05/08 05:32:20;;;;;;;7.13;6.53;;;;;;;22.90;34.25;100209.56;5131934;28;20190;-64
2022/05/08 05:34:47;;;;;;;5.60;4.80;;;;;;;23.91;34.78;100206.47;5132221;28;20204;-64
2022/05/08 05:37:15;;;;;;;7.37;6.17;;;;;;;24.60;31.29;100224.09;5131642;27;20248;-64
2022/05/08 05:39:42;;;;;;;8.07;5.90;;;;;;;25.11;34.17;100205.06;5132597;27;20194;-71
2022/05/08 05:42:09;;;;;;;6.73;6.13;;;;;;;25.95;31.02;100211.44;5129134;28;20197;-72
2022/05/08 05:44:36;;;;;;;10.30;5.43;;;;;;;26.44;30.01;100204.09;5131097;27;20200;-71
2022/05/08 05:49:47;;;;;;;5.07;4.57;;;;;;;27.48;28.91;100201.63;5131830;27;20344;-69
2022/05/08 05:52:15;;;;;;;6.23;4.73;;;;;;;27.90;27.52;100202.53;5135626;27;20190;-70
2022/05/08 05:54:42;;;;;;;16.13;4.63;;;;;;;28.54;27.88;100210.97;5135210;27;20731;-69
2022/05/08 05:57:08;;;;;;;7.40;4.73;;;;;;;29.10;26.15;100206.25;5134653;27;20246;-70
2022/05/08 05:59:35;;;;;;;5.33;4.13;;;;;;;28.96;24.48;100216.28;5135771;27;20206;-74
2022/05/08 06:02:02;;;;;;;9.77;5.00;;;;;;;29.36;25.23;100212.09;5132205;27;20210;-70
2022/05/08 06:04:28;;;;;;;7.97;5.00;;;;;;;28.62;24.43;100204.81;5135815;27;20194;-70
2022/05/08 06:06:55;;;;;;;7.77;4.90;;;;;;;28.27;24.97;100205.31;5139988;27;20200;-71
2022/05/08 06:09:23;;;;;;;5.50;5.00;;;;;;;27.45;25.90;100197.56;5135804;27;20225;-70
2022/05/08 06:11:52;;;;;;;5.50;4.97;;;;;;;27.13;26.22;100196.50;5136042;27;20230;-71
2022/05/08 06:14:18;;;;;;;4.53;4.23;;;;;;;26.96;28.27;100187.91;5135849;27;20254;-75
2022/05/08 06:16:45;;;;;;;8.10;4.60;;;;;;;26.78;28.37;100194.88;5135353;27;20258;-74
2022/05/08 06:19:12;;;;;;;8.20;4.43;;;;;;;26.85;27.12;100189.09;5134366;27;20671;-77
2022/05/08 06:21:39;;;;;;;15.77;4.60;;;;;;;26.14;28.35;100193.38;5135808;27;20730;-76
2022/05/08 06:24:06;;;;;;;6.37;4.77;;;;;;;26.04;29.64;100196.97;5139915;27;20642;-87
2022/05/08 06:26:34;;;;;;;7.93;4.90;;;;;;;25.61;29.06;100188.66;5140584;27;20247;-80
2022/05/08 06:29:01;;;;;;;4.17;3.73;;;;;;;26.03;29.82;100191.78;5140629;27;20276;-86
2022/05/08 06:31:28;;;;;;;9.47;4.40;;;;;;;26.43;27.82;100202.47;5139611;27;20251;-77
2022/05/08 06:33:54;;;;;;;5.47;3.53;;;;;;;27.29;28.45;100206.19;5140470;27;20194;-66
2022/05/08 06:36:21;;;;;;;9.23;4.20;;;;;;;27.95;27.82;100207.09;5136330;27;20263;-66
2022/05/08 06:38:48;;;;;;;4.93;3.90;;;;;;;28.09;26.48;100210.78;5135439;27;20701;-68
2022/05/08 06:41:15;;;;;;;7.07;4.27;;;;;;;28.67;26.52;100207.47;5135393;27;20194;-68
2022/05/08 06:43:44;;;;;;;7.87;4.00;;;;;;;28.92;25.37;100198.84;5135359;27;20194;-68
2022/05/08 06:46:12;;;;;;;6.03;4.37;;;;;;;28.85;25.40;100209.38;5136903;27;20194;-75
2022/05/08 06:48:39;;;;;;;5.53;3.73;;;;;;;28.88;25.05;100202.50;5136079;27;20221;-71
2022/05/08 06:51:06;;;;;;;4.33;3.90;;;;;;;29.02;25.53;100203.38;5136033;27;20272;-71
2022/05/08 06:53:33;;;;;;;5.10;4.20;;;;;;;28.64;24.59;100199.06;5134945;27;20615;-70
2022/05/08 06:56:00;;;;;;;4.90;4.50;;;;;;;28.45;25.15;100203.72;5135188;27;20201;-71
2022/05/08 06:58:26;;;;;;;6.27;3.90;;;;;;;28.42;26.23;100193.41;5133159;27;20579;-70
2022/05/08 07:03:39;;;;;;;4.07;3.77;;;;;;;27.58;25.53;100187.88;5133312;27;20197;-74
2022/05/08 07:06:06;;;;;;;4.83;4.33;;;;;;;27.54;26.76;100176.72;5132791;27;20671;-72
2022/05/08 07:08:33;;;;;;;7.60;4.33;;;;;;;27.90;25.83;100185.31;5134267;27;20221;-72
2022/05/08 07:11:01;;;;;;;7.93;4.60;;;;;;;28.10;25.35;100180.41;5129934;27;20217;-71
2022/05/08 07:13:27;;;;;;;6.27;4.33;;;;;;;28.28;25.18;100181.53;5132447;27;20190;-71
2022/05/08 07:15:55;;;;;;;6.33;3.90;;;;;;;28.32;25.17;100179.81;5132137;27;20191;-71
2022/05/08 07:18:22;;;;;;;11.33;4.30;;;;;;;28.58;26.17;100181.91;5133861;27;20194;-73
2022/05/08 07:20:49;;;;;;;7.67;4.07;;;;;;;28.97;25.54;100184.28;5132935;27;20258;-71
2022/05/08 07:23:16;;;;;;;5.13;4.57;;;;;;;28.63;25.63;100178.31;5132867;27;20202;-71
2022/05/08 07:25:42;;;;;;;4.30;3.87;;;;;;;27.80;27.13;100174.47;5133762;27;20277;-71
2022/05/08 07:28:09;;;;;;;5.90;4.60;;;;;;;27.08;26.95;100172.00;5133309;27;20713;-71
2022/05/08 07:30:36;;;;;;;6.70;4.67;;;;;;;26.86;27.97;100175.19;5132588;27;20200;-70
2022/05/08 07:33:04;;;;;;;5.07;4.43;;;;;;;26.66;27.82;100174.53;5132743;27;20206;-71
2022/05/08 07:38:17;;;;;;;5.30;4.80;;;;;;;27.04;27.46;100173.66;5133151;27;20197;-72
2022/05/08 07:40:47;;;;;;;7.17;4.13;;;;;;;27.03;27.35;100174.78;5128080;27;20194;-70
2022/05/08 07:43:15;;;;;;;6.70;4.57;;;;;;;27.23;27.18;100180.06;5132670;27;20188;-72
2022/05/08 07:45:43;;;;;;;14.40;5.03;;;;;;;27.07;28.91;100170.38;5133616;27;20190;-70
2022/05/08 07:48:11;;;;;;;7.50;4.17;;;;;;;27.49;27.41;100167.78;5132296;27;20222;-71
2022/05/08 07:50:38;;;;;;;5.60;4.30;;;;;;;27.79;26.69;100173.69;5130521;27;20210;-69
2022/05/08 07:53:05;;;;;;;6.30;4.50;;;;;;;28.03;26.10;100165.47;5132040;27;20239;-71
2022/05/08 07:55:32;;;;;;;6.60;4.60;;;;;;;28.01;24.77;100171.22;5133735;27;20190;-70
2022/05/08 07:57:59;;;;;;;5.17;4.00;;;;;;;27.81;25.96;100170.66;5133277;27;20642;-69
2022/05/08 08:00:26;;;;;;;7.17;4.60;;;;;;;28.02;26.16;100161.13;5129366;27;20197;-70
2022/05/08 08:02:52;;;;;;;4.73;4.33;;;;;;;27.94;25.95;100154.41;5133410;27;20198;-70
2022/05/08 08:05:21;;;;;;;5.80;4.17;;;;;;;27.74;25.95;100157.38;5150325;27;20194;-71
2022/05/08 08:07:48;;;;;;;6.23;4.27;;;;;;;26.82;26.45;100156.97;5130677;27;20201;-71
2022/05/08 08:10:15;;;;;;;5.33;4.40;;;;;;;26.64;27.39;100163.09;5132822;27;20751;-69
2022/05/08 08:12:42;;;;;;;4.13;3.83;;;;;;;26.63;27.94;100164.19;5130070;27;20194;-70
2022/05/08 08:15:10;;;;;;;6.97;4.90;;;;;;;26.16;27.72;100163.94;5132716;27;20223;-70
2022/05/08 08:17:37;;;;;;;4.50;4.10;;;;;;;26.45;27.67;100157.47;5129561;27;20258;-70
2022/05/08 08:20:05;;;;;;;4.60;4.20;;;;;;;26.61;28.44;100161.75;5132132;27;20194;-69
2022/05/08 08:22:33;;;;;;;6.50;4.20;;;;;;;26.77;27.47;100154.25;5132787;27;20269;-70
2022/05/08 08:25:00;;;;;;;8.73;4.50;;;;;;;26.62;28.14;100157.13;5133653;27;20270;-70
2022/05/08 08:27:27;;;;;;;6.00;4.50;;;;;;;26.72;27.81;100159.75;5132389;27;20194;-71
2022/05/08 08:29:54;;;;;;;4.43;4.03;;;;;;;26.93;27.32;100158.47;5129839;27;20217;-70
2022/05/08 08:32:22;;;;;;;6.00;3.97;;;;;;;26.39;27.13;100149.63;5132811;27;20217;-70
2022/05/08 08:34:49;;;;;;;4.60;4.20;;;;;;;26.42;27.54;100149.06;5128500;27;20193;-70
2022/05/08 08:37:16;;;;;;;11.47;4.50;;;;;;;25.88;28.73;100140.13;5116143;27;20199;-71
2022/05/08 08:39:44;;;;;;;6.87;4.40;;;;;;;26.02;28.44;100149.31;5110537;28;20711;-72
2022/05/08 08:42:29;;;;;;;4.23;3.83;;;;;;;26.26;28.75;100153.00;5112181;28;20195;-72
2022/05/08 08:47:51;;;;;;;4.50;4.10;;;;;;;25.98;27.79;100146.34;5111931;28;20233;-69
2022/05/08 08:50:18;;;;;;;4.60;3.90;;;;;;;26.13;27.86;100148.19;5128923;27;20254;-67
2022/05/08 08:52:47;;;;;;;5.37;3.40;;;;;;;26.19;27.91;100141.59;5132045;27;20310;-68
2022/05/08 08:55:16;;;;;;;4.33;3.77;;;;;;;26.27;27.20;100141.81;5131197;27;20243;-70
2022/05/08 08:57:44;;;;;;;3.97;3.50;;;;;;;26.11;27.23;100134.84;5131615;27;20193;-69
2022/05/08 09:00:11;;;;;;;4.07;3.77;;;;;;;26.13;27.77;100137.28;5131976;27;20263;-69
2022/05/08 09:02:38;;;;;;;5.03;3.73;;;;;;;26.11;27.52;100137.56;5132301;27;20231;-70
2022/05/08 09:05:07;;;;;;;6.97;3.87;;;;;;;26.04;27.94;100117.19;5132230;27;20246;-68
2022/05/08 09:07:39;;;;;;;6.40;3.60;;;;;;;25.98;28.58;100126.47;5130156;27;20562;-69
2022/05/08 09:10:15;;;;;;;3.70;3.40;;;;;;;25.99;27.80;100130.81;5129523;27;20527;-70
2022/05/08 09:12:44;;;;;;;4.37;3.53;;;;;;;25.98;27.86;100124.56;5130398;27;20586;-69
2022/05/08 09:15:25;;;;;;;5.13;3.60;;;;;;;24.61;29.34;100119.75;5130789;27;20193;-70
2022/05/08 09:17:55;;;;;;;4.50;3.50;;;;;;;25.19;29.13;100121.00;5130890;27;20707;-69
2022/05/08 09:20:40;;;;;;;6.43;3.90;;;;;;;24.86;29.93;100118.91;5131139;27;20708;-69
2022/05/08 09:23:13;;;;;;;6.00;3.53;;;;;;;24.93;30.14;100114.81;5131902;27;20276;-68
2022/05/08 09:25:56;;;;;;;4.73;4.10;;;;;;;25.07;30.08;100116.97;5135191;27;20178;-68
2022/05/08 09:28:25;;;;;;;7.33;3.50;;;;;;;25.22;29.79;100114.19;5136652;27;20526;-68
2022/05/08 09:31:03;;;;;;;4.00;3.70;;;;;;;25.19;28.84;100109.34;5136275;27;20221;-68
2022/05/08 09:33:32;;;;;;;4.17;3.30;;;;;;;25.14;28.73;100106.63;5136391;27;20181;-68
2022/05/08 09:36:01;;;;;;;5.73;4.70;;;;;;;24.64;29.23;100118.38;5136511;27;20190;-68
2022/05/08 09:38:45;;;;;;;4.63;3.00;;;;;;;24.71;28.81;100113.50;5136081;27;20204;-67
2022/05/08 09:41:14;;;;;;;3.40;3.10;;;;;;;25.04;28.78;100116.41;5136513;27;20207;-68
2022/05/08 09:43:41;;;;;;;3.47;3.27;;;;;;;25.37;28.58;100116.91;5136559;27;20193;-67
2022/05/08 09:46:09;;;;;;;3.87;3.60;;;;;;;24.98;28.84;100105.81;5136506;27;20727;-67
2022/05/08 09:48:36;;;;;;;3.57;3.20;;;;;;;24.33;30.29;100103.94;5133760;27;20316;-68
2022/05/08 09:51:05;;;;;;;4.03;3.23;;;;;;;24.31;31.03;100108.84;5115505;28;20256;-67
2022/05/08 09:53:33;;;;;;;3.80;3.50;;;;;;;24.29;30.91;100093.88;5115346;28;20246;-68
2022/05/08 09:56:01;;;;;;;7.43;3.20;;;;;;;24.34;30.27;100102.84;5115196;28;20626;-67
2022/05/08 09:58:29;;;;;;;3.30;3.10;;;;;;;24.54;30.82;100102.84;5115524;27;20189;-68
2022/05/08 10:00:57;;;;;;;3.37;3.07;;;;;;;24.70;30.87;100099.06;5115650;28;20210;-67
2022/05/08 10:03:24;;;;;;;7.33;3.70;;;;;;;24.62;30.69;100088.75;5115753;28;20280;-67
2022/05/08 10:05:51;;;;;;;3.97;3.10;;;;;;;24.52;31.21;100077.88;5115056;28;20211;-69
2022/05/08 10:08:20;;;;;;;4.30;3.07;;;;;;;24.80;31.09;100085.47;5116006;28;20589;-68
2022/05/08 10:13:56;;;;;;;3.83;3.63;;;;;;;25.20;30.83;100072.88;5114796;28;20176;-68
2022/05/08 10:16:45;;;;;;;5.43;3.30;;;;;;;25.25;30.42;100051.09;5114120;28;20602;-69
2022/05/08 10:19:53;;;;;;;3.43;3.13;;;;;;;25.16;30.69;100056.31;5114781;27;20198;-68
2022/05/08 10:22:20;;;;;;;3.83;3.53;;;;;;;24.96;31.27;100054.44;5113615;27;20256;-68
2022/05/08 10:24:51;;;;;;;5.10;3.90;;;;;;;25.08;31.25;100054.16;5115135;28;20216;-68
2022/05/08 10:27:21;;;;;;;3.33;3.10;;;;;;;25.02;31.41;100062.63;5115515;28;20548;-68
2022/05/08 10:30:24;;;;;;;8.50;3.93;;;;;;;25.31;30.61;100041.88;5115054;28;20229;-67
2022/05/08 10:32:52;;;;;;;3.70;3.37;;;;;;;25.39;30.57;100049.47;5115512;28;20194;-68
2022/05/08 10:35:21;;;;;;;3.70;3.40;;;;;;;25.16;31.41;100037.28;5114282;28;20622;-68
2022/05/08 10:37:49;;;;;;;5.00;3.13;;;;;;;25.17;31.65;100036.19;5114101;28;20201;-69
2022/05/08 10:40:36;;;;;;;4.10;3.63;;;;;;;25.33;31.10;100042.38;5114832;28;20190;-70
2022/05/08 10:43:25;;;;;;;3.83;3.53;;;;;;;25.14;31.03;100031.28;5114593;28;20187;-68
2022/05/08 10:45:53;;;;;;;4.07;3.37;;;;;;;25.27;31.30;100040.78;5114564;28;20191;-68
2022/05/08 10:48:25;;;;;;;5.33;3.60;;;;;;;25.29;31.24;100033.16;5114677;27;20280;-68
2022/05/08 10:50:53;;;;;;;6.17;3.43;;;;;;;24.80;31.53;100022.94;5135170;27;20301;-68
2022/05/08 10:53:21;;;;;;;3.90;3.50;;;;;;;24.65;31.96;100031.16;5134709;27;20193;-68
2022/05/08 10:55:48;;;;;;;3.63;3.33;;;;;;;24.60;32.29;100036.59;5135176;27;20240;-68
2022/05/08 10:58:15;;;;;;;4.40;3.37;;;;;;;24.50;32.42;100028.41;5134694;27;20666;-68
2022/05/08 11:00:42;;;;;;;3.93;3.60;;;;;;;24.64;32.20;100020.56;5134750;27;20198;-68
2022/05/08 11:03:08;;;;;;;4.50;3.77;;;;;;;24.81;32.01;100019.16;5134915;27;20292;-68
2022/05/08 11:05:38;;;;;;;4.00;3.70;;;;;;;24.92;31.54;100011.78;5134984;27;20658;-68
2022/05/08 11:08:07;;;;;;;5.63;3.47;;;;;;;24.96;32.17;100002.78;5134595;27;20720;-68
2022/05/08 11:10:35;;;;;;;4.30;3.60;;;;;;;25.15;32.21;100004.91;5134546;27;20244;-68
2022/05/08 11:13:04;;;;;;;3.83;3.47;;;;;;;25.22;31.55;99999.97;5134518;27;20246;-68
2022/05/08 11:15:33;;;;;;;3.87;3.43;;;;;;;25.29;31.70;100005.97;5134331;27;20197;-68
2022/05/08 11:18:04;;;;;;;3.83;3.53;;;;;;;25.29;31.31;100016.84;5134487;27;20189;-69
2022/05/08 11:20:31;;;;;;;3.73;3.43;;;;;;;25.21;31.35;99992.91;5134137;27;20720;-68
2022/05/08 11:23:00;;;;;;;6.03;3.10;;;;;;;24.76;32.08;99997.44;5134045;27;20193;-69
2022/05/08 11:25:26;;;;;;;3.80;3.33;;;;;;;24.82;32.23;99996.31;5134251;27;20246;-68
2022/05/08 11:27:53;;;;;;;3.40;3.10;;;;;;;24.77;32.79;99993.63;5133971;27;20194;-67
2022/05/08 11:30:31;;;;;;;3.83;3.43;;;;;;;24.75;32.79;100001.22;5133710;27;20221;-69
2022/05/08 11:36:05;;;;;;;5.83;3.90;;;;;;;23.94;34.28;99980.66;5134012;27;20188;-68
2022/05/08 11:38:39;;;;;;;7.37;3.70;;;;;;;23.88;34.80;99978.16;5134228;27;20669;-67
2022/05/08 11:41:08;;;;;;;4.80;3.27;;;;;;;23.51;35.49;99975.69;5134668;27;20199;-68
2022/05/08 11:43:39;;;;;;;6.03;3.13;;;;;;;23.58;36.05;99978.97;5134033;27;20195;-68
2022/05/08 11:46:07;;;;;;;4.07;3.20;;;;;;;23.80;35.56;99971.41;5133668;27;20749;-67
2022/05/08 11:48:37;;;;;;;4.33;4.03;;;;;;;23.94;34.54;99967.06;5131626;27;20228;-68
2022/05/08 11:51:05;;;;;;;9.93;3.67;;;;;;;24.07;34.54;99961.13;5113017;28;20260;-67
2022/05/08 11:53:40;;;;;;;5.70;3.90;;;;;;;24.06;34.45;99966.81;5112837;28;20201;-70
2022/05/08 11:56:28;;;;;;;3.50;3.20;;;;;;;23.87;35.14;99957.56;5113395;28;20181;-68
2022/05/08 11:58:57;;;;;;;3.90;3.50;;;;;;;23.94;35.61;99956.22;5113050;28;20681;-67
2022/05/08 12:01:25;;;;;;;6.20;4.20;;;;;;;23.78;35.43;99946.44;5113479;28;20224;-67